Time;durP1;ratioP1;P1;durP2;ratioP2;P2;SDS_P1;SDS_P2;PMS_P1;PMS_P2;Temp;Humidity;BMP_temperature;BMP_pressure;BME280_temperature;BME280_humidity;BME280_pressure;Samples;Min_cycle;Max_cycle;Signal;HPM_P1;HPM_P2
2023/12/04 00:03:18;;;;;;;1.38;1.27;;;18.90;45.10;;;;;;8359542;28;20025;-54
2023/12/04 00:07:19;;;;;;;1.45;1.15;;;18.90;45.10;;;;;;8359500;28;20064;-54
2023/12/04 00:11:19;;;;;;;1.70;1.13;;;18.90;45.00;;;;;;8359640;28;20056;-53
2023/12/04 00:15:21;;;;;;;1.33;1.20;;;18.90;45.20;;;;;;8359391;28;20047;-54
2023/12/04 00:19:22;;;;;;;1.30;1.08;;;18.90;45.20;;;;;;8359335;28;20107;-53
2023/12/04 00:23:22;;;;;;;1.67;1.35;;;18.90;45.10;;;;;;8359315;28;20025;-54
2023/12/04 00:27:26;;;;;;;1.60;1.50;;;18.90;45.10;;;;;;8359315;28;20025;-55
2023/12/04 00:31:28;;;;;;;1.33;1.23;;;18.90;45.10;;;;;;8359149;28;20041;-54
2023/12/04 00:35:28;;;;;;;;;;;18.90;45.10;;;;;;8359438;28;20482;-54
2023/12/04 00:39:29;;;;;;;1.60;1.10;;;18.90;45.10;;;;;;8359084;28;20281;-53
2023/12/04 00:43:29;;;;;;;1.30;1.20;;;18.90;45.00;;;;;;8359192;28;20029;-54
2023/12/04 00:47:30;;;;;;;1.60;1.33;;;18.90;45.10;;;;;;8361399;28;20067;-54
2023/12/04 00:51:37;;;;;;;1.92;1.10;;;18.90;45.10;;;;;;8364724;28;20724;-53
2023/12/04 00:55:38;;;;;;;1.98;1.20;;;18.90;45.00;;;;;;8364656;28;20045;-54
2023/12/04 00:59:39;;;;;;;1.33;1.23;;;18.90;45.00;;;;;;8364675;28;20075;-55
2023/12/04 01:03:39;;;;;;;1.42;1.17;;;18.90;45.00;;;;;;8363195;28;20040;-54
2023/12/04 01:07:40;;;;;;;1.90;1.45;;;18.90;45.00;;;;;;8364135;28;20132;-54
2023/12/04 01:11:41;;;;;;;1.48;1.38;;;18.90;45.00;;;;;;8364319;28;20036;-52
2023/12/04 01:15:42;;;;;;;2.78;1.50;;;18.80;45.10;;;;;;8364033;28;20123;-50
2023/12/04 01:19:43;;;;;;;1.85;1.23;;;18.80;45.10;;;;;;8364333;28;20112;-51
2023/12/04 01:23:44;;;;;;;1.30;1.10;;;18.80;45.00;;;;;;8363806;28;20037;-50
2023/12/04 01:27:44;;;;;;;1.30;1.20;;;18.80;45.00;;;;;;8363608;28;20525;-51
2023/12/04 01:31:45;;;;;;;1.05;0.90;;;18.80;45.00;;;;;;8363558;28;20479;-50
2023/12/04 01:35:46;;;;;;;1.40;1.30;;;18.90;45.00;;;;;;8363461;28;20037;-50
2023/12/04 01:39:46;;;;;;;1.83;1.20;;;18.90;45.00;;;;;;8363296;28;20474;-51
2023/12/04 01:43:47;;;;;;;1.73;1.50;;;18.80;45.00;;;;;;8363160;28;20041;-51
2023/12/04 01:47:48;;;;;;;1.50;1.25;;;18.80;45.00;;;;;;8363396;28;20056;-50
2023/12/04 01:51:49;;;;;;;1.67;1.50;;;18.80;45.00;;;;;;8362956;28;20032;-49
2023/12/04 01:55:49;;;;;;;1.63;1.20;;;18.80;44.90;;;;;;8362987;28;20029;-49
2023/12/04 01:59:51;;;;;;;1.33;1.23;;;18.90;45.00;;;;;;8362164;28;20025;-51
2023/12/04 02:03:52;;;;;;;1.60;1.38;;;18.90;45.00;;;;;;8361421;28;20037;-51
2023/12/04 02:07:53;;;;;;;2.30;1.20;;;18.80;44.90;;;;;;8362253;28;20056;-51
2023/12/04 02:11:54;;;;;;;;;;;18.80;45.00;;;;;;8362644;28;20033;-50
2023/12/04 02:15:58;;;;;;;2.10;1.60;;;18.80;45.10;;;;;;8362106;28;19909;-49
2023/12/04 02:19:59;;;;;;;1.20;1.10;;;18.80;45.10;;;;;;8362098;28;20040;-53
2023/12/04 02:24:00;;;;;;;1.38;1.27;;;18.80;45.00;;;;;;8362014;28;20037;-52
2023/12/04 02:28:06;;;;;;;1.50;1.40;;;18.80;45.00;;;;;;8361761;28;20595;-53
2023/12/04 02:32:10;;;;;;;1.10;1.00;;;18.80;45.00;;;;;;8361473;28;20467;-53
2023/12/04 02:36:12;;;;;;;2.22;1.48;;;18.80;45.00;;;;;;8361581;28;20402;-54
2023/12/04 02:40:13;;;;;;;1.30;1.20;;;18.80;45.00;;;;;;8361268;28;20041;-53
2023/12/04 02:44:14;;;;;;;1.65;1.23;;;18.80;44.90;;;;;;8361123;28;20037;-53
2023/12/04 02:48:15;;;;;;;1.67;1.40;;;18.80;44.90;;;;;;8361217;28;20030;-54
2023/12/04 02:52:15;;;;;;;1.48;1.30;;;18.80;44.90;;;;;;8360905;28;20037;-52
2023/12/04 02:56:16;;;;;;;2.50;1.50;;;18.80;44.90;;;;;;8360825;28;20029;-53
2023/12/04 03:00:17;;;;;;;1.13;1.00;;;18.80;45.00;;;;;;8360733;28;20106;-52
2023/12/04 03:04:19;;;;;;;1.63;1.48;;;18.80;44.90;;;;;;8360671;28;20029;-53
2023/12/04 03:08:20;;;;;;;1.52;1.30;;;18.80;44.90;;;;;;8360583;28;20106;-52
2023/12/04 03:12:21;;;;;;;1.95;1.33;;;18.90;44.90;;;;;;8359537;28;20044;-53
2023/12/04 03:16:21;;;;;;;1.90;1.30;;;18.80;45.00;;;;;;8360697;28;20538;-53
2023/12/04 03:20:22;;;;;;;1.55;1.20;;;18.80;44.90;;;;;;8359188;28;20041;-52
2023/12/04 03:24:23;;;;;;;1.85;1.67;;;18.90;44.80;;;;;;8360392;28;20037;-53
2023/12/04 03:28:24;;;;;;;1.73;1.30;;;19.00;44.80;;;;;;8360114;28;20021;-53
2023/12/04 03:32:24;;;;;;;2.15;1.50;;;18.90;44.70;;;;;;8360098;28;20033;-52
2023/12/04 03:36:25;;;;;;;1.45;1.30;;;18.90;44.70;;;;;;8360103;28;20044;-53
2023/12/04 03:40:26;;;;;;;2.15;1.25;;;18.90;44.60;;;;;;8359963;28;20029;-53
2023/12/04 03:44:26;;;;;;;1.30;1.17;;;19.00;44.70;;;;;;8360014;28;20036;-53
2023/12/04 03:48:27;;;;;;;2.75;1.40;;;19.00;44.70;;;;;;8360002;28;20037;-54
2023/12/04 03:52:28;;;;;;;1.92;1.30;;;18.90;44.60;;;;;;8359946;28;20052;-54
2023/12/04 03:56:28;;;;;;;1.20;1.10;;;19.00;44.60;;;;;;8359662;28;20029;-53
2023/12/04 04:00:29;;;;;;;1.55;1.27;;;18.90;44.50;;;;;;8359969;28;20041;-52
2023/12/04 04:04:30;;;;;;;1.60;1.33;;;19.00;44.60;;;;;;8359654;28;20060;-52
2023/12/04 04:08:30;;;;;;;1.33;1.17;;;18.90;44.50;;;;;;8359545;28;20053;-54
2023/12/04 04:12:31;;;;;;;1.98;1.25;;;19.00;44.60;;;;;;8359702;28;20041;-53
2023/12/04 04:16:32;;;;;;;1.60;1.42;;;18.90;44.80;;;;;;8359480;28;20041;-53
2023/12/04 04:20:32;;;;;;;1.75;1.38;;;18.90;44.70;;;;;;8359530;28;20048;-52
2023/12/04 04:24:33;;;;;;;2.22;1.50;;;18.90;44.70;;;;;;8365411;28;20033;-53
2023/12/04 04:28:34;;;;;;;1.45;1.20;;;18.90;44.60;;;;;;8365522;28;20091;-53
2023/12/04 04:32:34;;;;;;;1.42;1.30;;;18.90;44.60;;;;;;8365543;28;20455;-53
2023/12/04 04:36:35;;;;;;;1.20;1.10;;;19.00;44.60;;;;;;8365512;28;20033;-53
2023/12/04 04:40:36;;;;;;;1.92;1.30;;;19.00;44.60;;;;;;8365264;28;20065;-53
2023/12/04 04:44:37;;;;;;;1.10;1.00;;;19.00;44.50;;;;;;8365506;28;20060;-52
2023/12/04 04:48:37;;;;;;;1.42;1.17;;;18.90;44.50;;;;;;8365898;28;20029;-54
2023/12/04 04:52:38;;;;;;;2.22;1.30;;;18.90;44.50;;;;;;8365003;28;20125;-53
2023/12/04 04:56:39;;;;;;;1.50;1.10;;;18.90;44.50;;;;;;8364748;28;20678;-52
2023/12/04 05:00:39;;;;;;;1.27;1.17;;;19.00;44.60;;;;;;8364669;28;20033;-52
2023/12/04 05:04:40;;;;;;;2.70;1.50;;;18.90;44.60;;;;;;8364720;28;20055;-53
2023/12/04 05:08:41;;;;;;;1.52;1.33;;;18.90;44.60;;;;;;8363011;28;20060;-53
2023/12/04 05:12:41;;;;;;;1.80;1.35;;;18.90;44.60;;;;;;8364232;28;20532;-52
2023/12/04 05:16:42;;;;;;;1.55;1.45;;;18.90;44.90;;;;;;8364213;28;20036;-53
2023/12/04 05:20:43;;;;;;;1.38;1.27;;;18.90;44.80;;;;;;8364146;28;20037;-52
2023/12/04 05:24:43;;;;;;;1.20;1.10;;;18.90;44.70;;;;;;8364025;28;20435;-52
2023/12/04 05:28:44;;;;;;;1.30;1.10;;;19.00;44.60;;;;;;8363793;28;20033;-52
2023/12/04 05:32:45;;;;;;;1.67;1.35;;;19.00;44.50;;;;;;8362712;28;20091;-53
2023/12/04 05:36:46;;;;;;;1.52;1.20;;;19.00;44.40;;;;;;8363546;28;20041;-52
2023/12/04 05:40:46;;;;;;;1.40;1.02;;;19.10;44.50;;;;;;8345549;28;20033;-53
2023/12/04 05:44:47;;;;;;;1.40;1.17;;;19.10;44.40;;;;;;8363572;28;20029;-53
2023/12/04 05:48:48;;;;;;;1.60;1.48;;;19.10;44.50;;;;;;8363277;28;20663;-53
2023/12/04 05:52:50;;;;;;;1.70;1.30;;;19.10;44.40;;;;;;8362955;28;20394;-52
2023/12/04 05:56:50;;;;;;;1.48;1.30;;;19.10;44.30;;;;;;8362852;28;20082;-49
2023/12/04 06:00:51;;;;;;;1.85;1.15;;;19.10;44.30;;;;;;8362836;28;20041;-51
2023/12/04 06:04:52;;;;;;;1.13;1.02;;;19.10;44.30;;;;;;8362855;28;20029;-52
2023/12/04 06:08:52;;;;;;;1.40;1.30;;;19.10;44.30;;;;;;8362449;28;20062;-51
2023/12/04 06:12:53;;;;;;;1.80;1.20;;;19.10;44.30;;;;;;8362308;28;20033;-49
2023/12/04 06:16:54;;;;;;;1.85;1.35;;;19.10;44.50;;;;;;8362531;28;20399;-49
2023/12/04 06:20:54;;;;;;;1.42;1.20;;;19.10;44.50;;;;;;8360828;28;20091;-52
2023/12/04 06:24:56;;;;;;;1.83;1.63;;;19.10;44.50;;;;;;8362090;28;20037;-50
2023/12/04 06:28:57;;;;;;;1.45;1.35;;;19.10;44.40;;;;;;8361883;28;20483;-50
2023/12/04 06:32:57;;;;;;;1.75;1.30;;;19.10;44.40;;;;;;8361728;28;20674;-52
2023/12/04 06:37:01;;;;;;;1.52;1.15;;;19.10;44.30;;;;;;8361605;28;20171;-51
2023/12/04 06:41:02;;;;;;;1.55;1.38;;;19.10;44.30;;;;;;8361550;28;20534;-52
2023/12/04 06:45:03;;;;;;;1.38;1.17;;;19.10;44.30;;;;;;8361387;28;20056;-53
2023/12/04 06:49:05;;;;;;;;;;;19.10;44.30;;;;;;8361587;28;20030;-49
2023/12/04 06:53:06;;;;;;;2.25;1.40;;;19.10;44.30;;;;;;8361271;28;19987;-52
2023/12/04 06:57:07;;;;;;;1.55;1.15;;;19.10;44.30;;;;;;8360887;28;20032;-50
2023/12/04 07:01:08;;;;;;;1.20;1.10;;;19.10;44.40;;;;;;8360904;28;20095;-52
2023/12/04 07:05:09;;;;;;;1.90;1.42;;;19.10;44.40;;;;;;8360665;28;20040;-52
2023/12/04 07:09:10;;;;;;;1.60;1.30;;;19.10;44.30;;;;;;8360801;28;20041;-50
2023/12/04 07:13:12;;;;;;;1.88;1.30;;;19.10;44.30;;;;;;8360609;28;20039;-50
2023/12/04 07:17:13;;;;;;;1.73;1.60;;;19.10;44.50;;;;;;8360482;28;20411;-52
2023/12/04 07:21:14;;;;;;;2.10;1.40;;;19.10;44.40;;;;;;8360375;28;20056;-51
2023/12/04 07:25:16;;;;;;;1.45;1.35;;;19.10;44.40;;;;;;8360359;28;20033;-50
2023/12/04 07:29:17;;;;;;;1.30;1.17;;;19.10;44.40;;;;;;8360635;28;20629;-52
2023/12/04 07:33:17;;;;;;;1.65;1.20;;;19.10;44.40;;;;;;8360195;28;20037;-49
2023/12/04 07:37:18;;;;;;;1.27;1.15;;;19.10;44.30;;;;;;8358684;28;20047;-51
2023/12/04 07:41:19;;;;;;;1.98;1.30;;;19.10;44.30;;;;;;8359972;28;20029;-50
2023/12/04 07:45:20;;;;;;;2.03;1.35;;;19.10;44.30;;;;;;8360044;28;20099;-50
2023/12/04 07:49:20;;;;;;;1.92;1.50;;;19.10;44.30;;;;;;8359933;28;20108;-51
2023/12/04 07:53:22;;;;;;;2.10;1.55;;;19.10;44.30;;;;;;8359945;28;20082;-50
2023/12/04 07:57:23;;;;;;;1.83;1.30;;;19.10;44.30;;;;;;8362053;28;20383;-51
2023/12/04 08:01:24;;;;;;;1.60;1.30;;;19.10;44.30;;;;;;8366183;28;20123;-49
2023/12/04 08:05:24;;;;;;;1.17;1.10;;;19.10;44.30;;;;;;8365961;28;20053;-51
2023/12/04 08:09:25;;;;;;;2.22;1.33;;;19.10;44.30;;;;;;8366346;28;20040;-54
2023/12/04 08:13:26;;;;;;;2.47;1.40;;;19.10;44.40;;;;;;8366063;28;20033;-55
2023/12/04 08:17:27;;;;;;;1.98;1.58;;;19.10;44.50;;;;;;8366077;28;20044;-54
2023/12/04 08:21:27;;;;;;;1.30;0.93;;;19.10;44.50;;;;;;8364494;28;20041;-55
2023/12/04 08:25:28;;;;;;;2.25;1.20;;;19.10;44.40;;;;;;8365783;28;20098;-53
2023/12/04 08:29:29;;;;;;;1.55;1.20;;;19.10;44.40;;;;;;8365678;28;20498;-54
2023/12/04 08:33:29;;;;;;;1.67;1.55;;;19.10;44.40;;;;;;8365524;28;20086;-55
2023/12/04 08:37:31;;;;;;;2.25;1.35;;;19.10;44.40;;;;;;8365316;28;20428;-54
2023/12/04 08:41:32;;;;;;;1.40;1.30;;;19.10;44.30;;;;;;8365132;28;20037;-53
2023/12/04 08:45:33;;;;;;;1.60;1.25;;;19.10;44.30;;;;;;8365024;28;20040;-54
2023/12/04 08:49:34;;;;;;;;;;;19.10;44.30;;;;;;8365676;28;20053;-54
2023/12/04 08:53:35;;;;;;;1.60;1.20;;;19.10;44.30;;;;;;8364717;28;19916;-55
2023/12/04 08:57:35;;;;;;;1.80;1.40;;;19.10;44.30;;;;;;8364477;28;20071;-54
2023/12/04 09:01:36;;;;;;;3.15;2.15;;;19.10;44.30;;;;;;8364456;28;20033;-54
2023/12/04 09:05:37;;;;;;;1.73;1.35;;;19.10;44.20;;;;;;8364274;28;20107;-55
2023/12/04 09:09:38;;;;;;;;;;;19.10;44.30;;;;;;8364685;28;20033;-54
2023/12/04 09:13:39;;;;;;;1.47;1.20;;;19.10;44.30;;;;;;8362958;28;20007;-53
2023/12/04 09:17:39;;;;;;;1.40;1.17;;;19.10;44.50;;;;;;8364060;28;20494;-53
2023/12/04 09:21:40;;;;;;;1.33;1.23;;;19.10;44.50;;;;;;8363962;28;20036;-53
2023/12/04 09:25:41;;;;;;;1.95;1.25;;;19.10;44.50;;;;;;8363779;28;20033;-52
2023/12/04 09:29:42;;;;;;;1.38;1.17;;;19.10;44.40;;;;;;8363688;28;20162;-53
2023/12/04 09:33:42;;;;;;;2.38;1.50;;;19.10;44.40;;;;;;8363682;28;20451;-50
2023/12/04 09:37:43;;;;;;;1.90;1.20;;;19.10;44.40;;;;;;8363428;28;20033;-52
2023/12/04 09:41:46;;;;;;;2.00;1.20;;;19.10;44.30;;;;;;8363315;28;20152;-54
2023/12/04 09:45:47;;;;;;;1.55;1.38;;;19.10;44.30;;;;;;8363276;28;20029;-54
2023/12/04 09:49:51;;;;;;;1.30;1.20;;;19.10;44.30;;;;;;8363285;28;20102;-54
2023/12/04 09:53:52;;;;;;;1.25;1.02;;;19.20;44.30;;;;;;8362960;28;20064;-53
2023/12/04 09:57:56;;;;;;;1.73;1.30;;;19.10;44.20;;;;;;8362668;28;20029;-53
2023/12/04 10:01:57;;;;;;;1.10;1.00;;;19.10;44.30;;;;;;8362707;28;20450;-54
2023/12/04 10:05:58;;;;;;;1.45;1.35;;;19.10;44.20;;;;;;8362521;28;20049;-54
2023/12/04 10:09:59;;;;;;;1.63;1.30;;;19.10;44.20;;;;;;8362685;28;20552;-54
2023/12/04 10:14:00;;;;;;;1.52;1.23;;;19.10;44.40;;;;;;8362454;28;20037;-53
2023/12/04 10:18:01;;;;;;;1.60;1.10;;;19.10;44.50;;;;;;8362576;28;20040;-52
2023/12/04 10:22:03;;;;;;;2.03;1.10;;;19.10;44.50;;;;;;8361712;28;20041;-52
2023/12/04 10:26:05;;;;;;;1.65;1.15;;;19.10;44.50;;;;;;8361812;28;20163;-53
2023/12/04 10:30:07;;;;;;;2.08;1.10;;;19.10;44.40;;;;;;8361013;28;20087;-55
2023/12/04 10:34:09;;;;;;;2.70;1.50;;;19.10;44.40;;;;;;8361944;28;20037;-53
2023/12/04 10:38:10;;;;;;;1.40;1.10;;;19.20;44.50;;;;;;8361886;28;20453;-54
2023/12/04 10:42:33;;;;;;;1.33;1.17;;;19.10;44.30;;;;;;8361466;28;20029;-55
2023/12/04 10:46:36;;;;;;;1.23;1.13;;;19.10;44.30;;;;;;8361838;28;20040;-54
2023/12/04 10:50:47;;;;;;;1.77;1.38;;;19.10;44.30;;;;;;8361509;28;20113;-54
2023/12/04 10:55:20;;;;;;;1.25;1.15;;;19.10;44.30;;;;;;8343354;28;20075;-55
2023/12/04 10:59:27;;;;;;;1.45;1.20;;;19.10;44.20;;;;;;8330812;28;20045;-53
2023/12/04 11:03:59;;;;;;;1.42;1.33;;;19.10;44.20;;;;;;8328044;28;20036;-55
2023/12/04 11:08:02;;;;;;;1.10;0.98;;;19.10;44.20;;;;;;8327135;28;20103;-54
2023/12/04 11:12:08;;;;;;;2.20;1.38;;;19.10;44.30;;;;;;8327965;28;20060;-54
2023/12/04 11:16:45;;;;;;;1.23;1.13;;;19.10;44.50;;;;;;8327681;28;20033;-53
2023/12/04 11:20:58;;;;;;;1.65;1.33;;;19.10;44.40;;;;;;8327141;28;20071;-55
2023/12/04 11:24:59;;;;;;;1.60;1.45;;;19.10;44.40;;;;;;8327634;28;20029;-54
2023/12/04 11:29:03;;;;;;;1.70;1.60;;;19.10;44.40;;;;;;8354936;28;20036;-53
2023/12/04 11:33:05;;;;;;;1.48;1.27;;;19.10;44.40;;;;;;8359329;28;20079;-54
2023/12/04 11:37:05;;;;;;;1.77;1.45;;;19.10;44.30;;;;;;8360156;28;20107;-54
2023/12/04 11:41:23;;;;;;;1.88;1.55;;;19.10;44.30;;;;;;8360016;28;20037;-55
2023/12/04 11:45:24;;;;;;;1.20;0.98;;;19.10;44.30;;;;;;8360286;28;20045;-53
2023/12/04 11:49:29;;;;;;;1.55;1.15;;;19.10;44.30;;;;;;8359880;28;20029;-54
2023/12/04 11:53:30;;;;;;;1.25;1.15;;;19.10;44.30;;;;;;8359944;28;20029;-53
2023/12/04 11:57:36;;;;;;;1.25;1.05;;;19.10;44.30;;;;;;8358644;28;20036;-54
2023/12/04 12:01:37;;;;;;;1.70;1.30;;;19.10;44.30;;;;;;8359693;28;20108;-55
2023/12/04 12:05:41;;;;;;;1.45;1.30;;;19.20;44.30;;;;;;8359742;28;20049;-55
2023/12/04 12:09:41;;;;;;;1.45;1.20;;;19.20;44.30;;;;;;8358400;28;20100;-54
2023/12/04 12:13:42;;;;;;;1.45;1.13;;;19.10;44.30;;;;;;8360114;28;20044;-52
2023/12/04 12:17:43;;;;;;;1.55;1.45;;;19.10;44.50;;;;;;8359505;28;20413;-51
2023/12/04 12:21:43;;;;;;;1.77;1.30;;;19.10;44.40;;;;;;8359954;28;20040;-54
2023/12/04 12:25:44;;;;;;;1.42;1.08;;;19.20;44.50;;;;;;8359434;28;20060;-54
2023/12/04 12:29:45;;;;;;;1.20;1.10;;;19.10;44.40;;;;;;8359413;28;20039;-52
2023/12/04 12:33:46;;;;;;;1.45;1.23;;;19.10;44.40;;;;;;8359225;28;20033;-54
2023/12/04 12:37:46;;;;;;;1.55;1.45;;;19.10;44.40;;;;;;8359198;28;20037;-55
2023/12/04 12:41:50;;;;;;;1.40;1.30;;;19.10;44.50;;;;;;8357702;28;20033;-54
2023/12/04 12:45:51;;;;;;;1.73;1.20;;;19.10;44.50;;;;;;8365200;28;20083;-54
2023/12/04 12:49:52;;;;;;;1.17;1.08;;;19.10;44.40;;;;;;8365277;28;20029;-52
2023/12/04 12:53:53;;;;;;;1.52;1.17;;;19.20;44.50;;;;;;8364888;28;20647;-52
2023/12/04 12:57:56;;;;;;;1.42;1.10;;;19.20;44.50;;;;;;8364533;28;20474;-54
2023/12/04 13:02:00;;;;;;;1.65;1.42;;;19.10;44.40;;;;;;8365158;28;20040;-52
2023/12/04 13:06:01;;;;;;;2.33;1.30;;;19.20;44.40;;;;;;8364480;28;20123;-54
2023/12/04 13:10:04;;;;;;;1.15;1.05;;;19.10;44.40;;;;;;8364384;28;20497;-53
2023/12/04 13:14:05;;;;;;;1.63;1.13;;;19.10;44.50;;;;;;8364318;28;20441;-53
2023/12/04 13:18:06;;;;;;;1.27;1.15;;;19.10;44.60;;;;;;8364088;28;20033;-53
2023/12/04 13:22:07;;;;;;;1.40;1.23;;;19.10;44.60;;;;;;8364897;28;20037;-53
2023/12/04 13:26:10;;;;;;;1.45;1.20;;;19.10;44.60;;;;;;8363841;28;20029;-54
2023/12/04 13:30:11;;;;;;;1.10;0.95;;;19.10;44.50;;;;;;8363757;28;20036;-52
2023/12/04 13:34:12;;;;;;;1.42;1.33;;;19.10;44.50;;;;;;8363672;28;20112;-54
2023/12/04 13:38:13;;;;;;;1.23;1.10;;;19.10;44.40;;;;;;8363375;28;20036;-53
2023/12/04 13:46:36;;;;;;;1.20;1.10;;;19.10;44.50;;;;;;8363381;28;20543;-53
2023/12/04 13:50:37;;;;;;;2.40;2.03;;;19.10;44.50;;;;;;8363108;28;20036;-53
2023/12/04 13:54:47;;;;;;;1.75;1.30;;;19.10;44.50;;;;;;8361129;28;20041;-54
2023/12/04 13:58:54;;;;;;;1.80;1.40;;;19.10;44.50;;;;;;8362739;28;20033;-53
2023/12/04 14:03:03;;;;;;;1.63;1.30;;;19.10;44.50;;;;;;8363084;28;20033;-49
2023/12/04 14:07:04;;;;;;;1.73;1.35;;;19.10;44.50;;;;;;8361372;28;20072;-51
2023/12/04 14:11:05;;;;;;;1.23;1.13;;;19.10;44.40;;;;;;8362507;28;20065;-50
2023/12/04 14:15:06;;;;;;;1.70;1.30;;;19.10;44.60;;;;;;8362417;28;20063;-50
2023/12/04 14:19:07;;;;;;;1.45;1.00;;;19.10;44.60;;;;;;8362293;28;20037;-49
2023/12/04 14:23:08;;;;;;;1.60;1.10;;;19.10;44.60;;;;;;8362164;28;20029;-49
2023/12/04 14:27:09;;;;;;;1.23;1.08;;;19.10;44.60;;;;;;8362008;28;20442;-52
2023/12/04 14:31:10;;;;;;;1.77;1.10;;;19.10;44.60;;;;;;8360891;28;20033;-49
2023/12/04 14:35:13;;;;;;;1.20;1.10;;;19.10;44.50;;;;;;8360614;28;20036;-50
2023/12/04 14:39:17;;;;;;;1.10;0.95;;;19.10;44.40;;;;;;8361548;28;20041;-49
2023/12/04 14:43:18;;;;;;;1.20;1.05;;;19.10;44.90;;;;;;8361343;28;20036;-49
2023/12/04 14:47:18;;;;;;;1.65;1.10;;;19.10;44.40;;;;;;8361293;28;20040;-49
2023/12/04 14:51:19;;;;;;;1.70;1.42;;;19.10;44.30;;;;;;8361238;28;20043;-50
2023/12/04 15:24:10;;;;;;;1.30;1.10;;;19.10;44.50;;;;;;8360275;28;20029;-51
2023/12/04 15:28:11;;;;;;;1.48;1.27;;;19.10;44.40;;;;;;8360124;28;20087;-48
2023/12/04 15:32:12;;;;;;;2.20;1.40;;;19.10;44.40;;;;;;8360416;28;20036;-50
2023/12/04 15:36:13;;;;;;;1.30;1.10;;;19.20;44.40;;;;;;8359979;28;20075;-48
2023/12/04 15:40:14;;;;;;;1.45;1.25;;;19.20;44.40;;;;;;8359956;28;20036;-49
2023/12/04 15:44:15;;;;;;;1.48;1.30;;;19.10;44.30;;;;;;8360571;28;20029;-50
2023/12/04 15:48:15;;;;;;;1.40;1.10;;;19.10;44.30;;;;;;8360030;28;20033;-50
2023/12/04 15:52:18;;;;;;;1.13;1.02;;;19.10;44.30;;;;;;8359752;28;20075;-50
2023/12/04 15:56:20;;;;;;;1.48;1.20;;;19.10;44.20;;;;;;8360155;28;20029;-51
2023/12/04 16:00:25;;;;;;;0.90;0.88;;;19.10;44.30;;;;;;8359808;28;20147;-50
2023/12/04 16:04:25;;;;;;;1.40;1.27;;;19.10;44.20;;;;;;8359747;28;20043;-51
2023/12/04 16:08:26;;;;;;;1.15;1.05;;;19.10;44.30;;;;;;8359311;28;20053;-49
2023/12/04 16:12:27;;;;;;;1.20;1.05;;;19.10;44.30;;;;;;8359640;28;20048;-49
2023/12/04 16:16:28;;;;;;;1.65;1.30;;;19.10;44.50;;;;;;8359530;28;20040;-50
2023/12/04 16:20:28;;;;;;;1.35;1.10;;;19.10;44.50;;;;;;8365345;28;20402;-55
2023/12/04 16:24:29;;;;;;;2.38;1.50;;;19.10;44.50;;;;;;8366152;28;20083;-55
2023/12/04 16:28:30;;;;;;;2.05;1.35;;;19.10;44.50;;;;;;8365734;28;20581;-54
2023/12/04 16:32:30;;;;;;;1.63;1.35;;;19.10;44.40;;;;;;8365748;28;20040;-53
2023/12/04 16:36:31;;;;;;;1.05;0.95;;;19.10;44.30;;;;;;8365593;28;20337;-54
2023/12/04 16:40:32;;;;;;;1.05;0.95;;;19.10;44.30;;;;;;8365596;28;20044;-53
2023/12/04 16:44:33;;;;;;;1.35;1.00;;;19.10;44.30;;;;;;8365507;28;20029;-52
2023/12/04 16:48:33;;;;;;;1.60;1.38;;;19.10;44.30;;;;;;8365614;28;20471;-54
2023/12/04 16:52:34;;;;;;;1.65;1.15;;;19.10;44.40;;;;;;8365411;28;20399;-55
2023/12/04 16:56:35;;;;;;;2.10;1.38;;;19.10;44.30;;;;;;8364997;28;20037;-54
2023/12/04 17:00:36;;;;;;;1.58;1.30;;;19.10;44.30;;;;;;8365004;28;20052;-55
2023/12/04 17:04:36;;;;;;;1.27;1.10;;;19.00;44.30;;;;;;8364942;28;20033;-54
2023/12/04 17:08:37;;;;;;;1.60;1.10;;;19.00;44.30;;;;;;8364558;28;20057;-55
2023/12/04 17:12:44;;;;;;;1.60;1.40;;;19.00;44.40;;;;;;8364602;28;20033;-54
2023/12/04 17:16:45;;;;;;;1.10;1.00;;;19.00;44.60;;;;;;8364902;28;20029;-54
2023/12/04 17:20:45;;;;;;;0.77;0.77;;;19.00;44.50;;;;;;8364038;28;20474;-54
2023/12/04 17:24:46;;;;;;;1.42;1.33;;;19.10;44.50;;;;;;8364147;28;20399;-55
2023/12/04 17:28:47;;;;;;;1.38;1.23;;;19.10;44.40;;;;;;8362600;28;20478;-55
2023/12/04 17:32:48;;;;;;;1.20;1.00;;;19.10;44.40;;;;;;8363887;28;20033;-50
2023/12/04 17:36:48;;;;;;;1.95;1.15;;;19.10;44.90;;;;;;8363562;28;20036;-51
2023/12/04 17:40:49;;;;;;;1.33;1.20;;;19.10;44.30;;;;;;8363540;28;20556;-48
2023/12/04 17:44:49;;;;;;;1.38;1.20;;;19.10;44.30;;;;;;8363591;28;20037;-51
2023/12/04 17:48:50;;;;;;;1.20;1.10;;;19.10;44.30;;;;;;8363209;28;20025;-49
2023/12/04 17:52:51;;;;;;;1.17;1.08;;;19.10;44.30;;;;;;8363196;28;20040;-51
2023/12/04 17:56:51;;;;;;;1.20;1.10;;;19.10;44.30;;;;;;8362937;28;20068;-51
2023/12/04 18:00:52;;;;;;;1.67;1.20;;;19.10;44.30;;;;;;8362816;28;20045;-50
2023/12/04 18:04:53;;;;;;;1.35;1.20;;;19.00;44.30;;;;;;8362894;28;20037;-50
2023/12/04 18:08:54;;;;;;;2.22;1.17;;;19.00;44.40;;;;;;8362411;28;20463;-50
2023/12/04 18:12:55;;;;;;;1.40;1.08;;;19.00;44.40;;;;;;8362611;28;20360;-49
2023/12/04 18:16:55;;;;;;;1.55;1.00;;;19.00;44.60;;;;;;8362177;28;20098;-49
2023/12/04 18:20:56;;;;;;;1.52;1.00;;;19.10;44.50;;;;;;8362245;28;20037;-51
2023/12/04 18:24:57;;;;;;;1.73;1.02;;;19.10;44.40;;;;;;8362060;28;20037;-50
2023/12/04 18:28:58;;;;;;;1.30;1.08;;;19.10;44.90;;;;;;8362299;28;20046;-49
2023/12/04 18:32:59;;;;;;;1.25;0.98;;;19.10;44.30;;;;;;8361605;28;20044;-51
2023/12/04 18:37:11;;;;;;;1.15;1.00;;;19.10;44.30;;;;;;8361716;28;20033;-49
2023/12/04 18:41:13;;;;;;;1.20;1.10;;;19.10;44.30;;;;;;8360918;28;20033;-49
2023/12/04 18:45:14;;;;;;;1.95;1.30;;;19.10;44.30;;;;;;8361852;28;20124;-50
2023/12/04 18:49:15;;;;;;;;;;;19.10;44.30;;;;;;8361751;28;20029;-49
2023/12/04 18:53:18;;;;;;;1.13;1.02;;;19.10;44.30;;;;;;8359819;28;20120;-49
2023/12/04 18:57:19;;;;;;;1.50;1.00;;;19.10;44.20;;;;;;8360868;28;20037;-52
2023/12/04 19:01:20;;;;;;;;;;;19.10;44.20;;;;;;8361245;28;20071;-50
2023/12/04 19:05:22;;;;;;;1.03;0.93;;;19.10;44.20;;;;;;8360748;28;19909;-49
2023/12/04 19:09:23;;;;;;;1.50;0.98;;;19.10;44.20;;;;;;8360805;28;20372;-50
2023/12/04 19:13:24;;;;;;;1.50;1.13;;;19.10;44.30;;;;;;8360735;28;20033;-49
2023/12/04 19:17:24;;;;;;;1.60;1.50;;;19.10;44.50;;;;;;8360642;28;20482;-52
2023/12/04 19:21:25;;;;;;;1.10;1.02;;;19.10;44.40;;;;;;8360445;28;20028;-50
2023/12/04 19:25:27;;;;;;;1.13;1.02;;;19.10;44.40;;;;;;8360413;28;20475;-49
2023/12/04 19:29:27;;;;;;;1.25;1.05;;;19.10;44.30;;;;;;8360278;28;20033;-48
2023/12/04 19:33:29;;;;;;;1.40;1.30;;;19.10;44.30;;;;;;8360141;28;20490;-51
2023/12/04 19:37:30;;;;;;;1.63;1.13;;;19.10;44.30;;;;;;8360209;28;20041;-48
2023/12/04 19:41:31;;;;;;;0.98;0.90;;;19.10;44.30;;;;;;8360110;28;20078;-49
2023/12/04 19:45:32;;;;;;;1.25;0.90;;;19.10;44.40;;;;;;8360078;28;20100;-49
2023/12/04 19:49:33;;;;;;;0.90;0.90;;;19.10;44.40;;;;;;8359878;28;20036;-50
2023/12/04 19:53:34;;;;;;;1.02;0.98;;;19.10;44.40;;;;;;8362942;28;20048;-51
2023/12/04 19:57:35;;;;;;;1.88;1.17;;;19.10;44.40;;;;;;8366695;28;20032;-49
2023/12/04 20:01:35;;;;;;;1.10;0.95;;;19.10;44.40;;;;;;8366433;28;20623;-50
2023/12/04 20:05:36;;;;;;;1.33;1.00;;;19.10;44.30;;;;;;8366159;28;20072;-49
2023/12/04 20:09:37;;;;;;;1.35;1.00;;;19.10;44.20;;;;;;8366369;28;20667;-49
2023/12/04 20:13:39;;;;;;;1.65;1.02;;;19.10;44.30;;;;;;8366162;28;20083;-52
2023/12/04 20:17:39;;;;;;;;;;;19.10;44.50;;;;;;8366491;28;20108;-52
2023/12/04 20:21:42;;;;;;;0.93;0.80;;;19.10;44.40;;;;;;8365911;28;19912;-51
2023/12/04 20:25:43;;;;;;;1.23;1.00;;;19.10;44.50;;;;;;8365803;28;20086;-51
2023/12/04 20:29:44;;;;;;;1.27;1.17;;;19.10;44.40;;;;;;8365789;28;20447;-52
2023/12/04 20:33:44;;;;;;;1.05;0.95;;;19.10;44.40;;;;;;8365569;28;20033;-49
2023/12/04 20:37:45;;;;;;;2.08;1.20;;;19.10;44.30;;;;;;8365316;28;20033;-50
2023/12/04 20:41:46;;;;;;;1.10;1.00;;;19.10;44.30;;;;;;8365501;28;20036;-51
2023/12/04 20:45:47;;;;;;;2.40;1.02;;;19.10;44.30;;;;;;8365213;28;20040;-51
2023/12/04 20:49:49;;;;;;;1.05;1.02;;;19.10;44.30;;;;;;8365357;28;20032;-49
2023/12/04 20:53:49;;;;;;;0.77;0.77;;;19.10;44.40;;;;;;8364994;28;20080;-53
2023/12/04 20:57:50;;;;;;;1.40;1.30;;;19.10;44.40;;;;;;8365115;28;20029;-50
2023/12/04 21:01:51;;;;;;;1.17;0.90;;;19.10;44.40;;;;;;8364960;28;20651;-54
2023/12/04 21:05:52;;;;;;;1.23;1.13;;;19.10;44.40;;;;;;8364093;28;20107;-55
2023/12/04 21:09:52;;;;;;;1.10;1.02;;;19.10;44.40;;;;;;8364470;28;20033;-53
2023/12/04 21:13:53;;;;;;;1.00;0.90;;;19.10;44.40;;;;;;8364560;28;20038;-55
2023/12/04 21:17:54;;;;;;;1.23;1.13;;;19.00;44.50;;;;;;8364181;28;20158;-55
2023/12/04 21:21:55;;;;;;;1.10;1.00;;;19.10;44.50;;;;;;8363976;28;20060;-54
2023/12/04 21:25:56;;;;;;;1.33;0.93;;;19.10;44.40;;;;;;8363777;28;20029;-54
2023/12/04 21:29:58;;;;;;;1.15;1.05;;;19.10;44.40;;;;;;8364158;28;20545;-54
2023/12/04 21:33:59;;;;;;;1.20;1.05;;;19.10;44.30;;;;;;8363661;28;20029;-55